createdAt,value
2022-07-29T00:00:24.616Z,7.88
2022-07-29T00:03:05.891Z,5.25
2022-07-29T00:05:34.307Z,7.75
2022-07-29T00:08:02.419Z,8.07
2022-07-29T00:10:30.513Z,6.78
2022-07-29T00:12:58.866Z,6.60
2022-07-29T00:15:27.245Z,8.07
2022-07-29T00:17:55.345Z,6.78
2022-07-29T00:20:25.030Z,5.65
2022-07-29T00:22:54.252Z,4.20
2022-07-29T00:25:22.533Z,5.90
2022-07-29T00:27:50.885Z,5.70
2022-07-29T00:30:19.159Z,9.02
2022-07-29T00:32:47.298Z,8.50
2022-07-29T00:35:33.495Z,5.65
2022-07-29T00:38:03.073Z,5.68
2022-07-29T00:40:31.719Z,7.03
2022-07-29T00:43:00.035Z,6.03
2022-07-29T00:45:28.275Z,6.20
2022-07-29T00:47:56.970Z,6.75
2022-07-29T00:50:25.532Z,7.50
2022-07-29T00:52:54.390Z,6.45
2022-07-29T00:55:24.346Z,4.75
2022-07-29T00:57:52.932Z,5.68
2022-07-29T01:00:24.029Z,4.90
2022-07-29T01:05:22.354Z,6.68
2022-07-29T01:07:52.209Z,4.38
2022-07-29T01:10:22.139Z,5.55
2022-07-29T01:12:53.898Z,7.97
2022-07-29T01:15:22.553Z,3.78
2022-07-29T01:17:55.159Z,8.18
2022-07-29T01:20:31.233Z,3.83
2022-07-29T01:23:38.914Z,4.47
2022-07-29T01:26:24.590Z,5.90
2022-07-29T01:29:07.583Z,4.63
2022-07-29T01:31:58.531Z,5.65
2022-07-29T01:34:33.396Z,6.43
2022-07-29T01:37:09.213Z,4.88
2022-07-29T01:39:39.398Z,3.60
2022-07-29T01:42:14.430Z,5.55
2022-07-29T01:44:49.374Z,5.13
2022-07-29T01:47:22.576Z,3.88
2022-07-29T01:49:54.137Z,7.47
2022-07-29T01:52:25.736Z,3.45
2022-07-29T01:57:29.713Z,4.60
2022-07-29T02:00:01.609Z,2.92
2022-07-29T02:02:31.001Z,5.68
2022-07-29T02:05:00.008Z,2.92
2022-07-29T02:07:30.727Z,3.53
2022-07-29T02:10:00.523Z,4.53
2022-07-29T02:12:30.508Z,3.97
2022-07-29T02:15:02.373Z,3.97
2022-07-29T02:17:35.663Z,2.85
2022-07-29T02:20:08.486Z,3.83
2022-07-29T02:22:40.179Z,8.88
2022-07-29T02:27:43.672Z,3.30
2022-07-29T02:30:14.470Z,5.20
2022-07-29T02:32:44.245Z,2.85
2022-07-29T02:35:16.791Z,3.25
2022-07-29T02:37:45.874Z,3.65
2022-07-29T02:40:15.493Z,3.50
2022-07-29T02:42:44.694Z,4.40
2022-07-29T02:45:14.247Z,6.53
2022-07-29T02:47:46.013Z,3.30
2022-07-29T02:50:18.181Z,4.68
2022-07-29T02:52:48.138Z,7.78
2022-07-29T02:55:19.590Z,3.55
2022-07-29T02:57:54.850Z,3.53
2022-07-29T03:00:26.434Z,4.10
2022-07-29T03:02:56.480Z,4.22
2022-07-29T03:05:25.277Z,3.47
2022-07-29T03:08:04.453Z,2.60
2022-07-29T03:10:34.061Z,7.45
2022-07-29T03:13:02.905Z,4.75
2022-07-29T03:15:33.721Z,5.63
2022-07-29T03:18:02.198Z,2.72
2022-07-29T03:20:30.451Z,4.28
2022-07-29T03:22:58.713Z,7.22
2022-07-29T03:25:28.203Z,4.22
2022-07-29T03:27:57.790Z,7.07
2022-07-29T03:30:26.432Z,7.32
2022-07-29T03:32:58.690Z,3.05
2022-07-29T03:37:55.045Z,3.25
2022-07-29T03:40:26.586Z,4.22
2022-07-29T03:45:23.059Z,5.28
2022-07-29T03:47:59.934Z,2.78
2022-07-29T03:50:31.415Z,2.33
2022-07-29T03:53:00.256Z,3.50
2022-07-29T03:55:31.147Z,5.68
2022-07-29T03:57:59.786Z,6.07
2022-07-29T04:00:29.405Z,3.95
2022-07-29T04:02:58.119Z,3.33
2022-07-29T04:05:26.348Z,3.33
2022-07-29T04:07:56.156Z,3.45
2022-07-29T04:10:30.456Z,8.38
2022-07-29T04:13:00.801Z,2.95
2022-07-29T04:15:30.955Z,3.60
2022-07-29T04:18:00.497Z,3.65
2022-07-29T04:20:29.123Z,4.35
2022-07-29T04:22:58.714Z,3.80
2022-07-29T04:25:26.958Z,5.30
2022-07-29T04:28:04.398Z,5.22
2022-07-29T04:30:34.490Z,4.78
2022-07-29T04:33:03.208Z,4.30
2022-07-29T04:35:38.022Z,4.50
2022-07-29T04:38:15.946Z,4.45
2022-07-29T04:40:45.592Z,7.25
2022-07-29T04:43:16.155Z,4.35
2022-07-29T04:45:44.455Z,5.97
2022-07-29T04:48:12.842Z,5.82
2022-07-29T04:50:41.599Z,7.38
2022-07-29T04:53:11.303Z,4.65
2022-07-29T04:55:39.664Z,2.95
2022-07-29T04:58:08.600Z,4.43
2022-07-29T05:00:37.264Z,7.18
2022-07-29T05:03:05.753Z,2.83
2022-07-29T05:05:34.378Z,4.40
2022-07-29T05:08:02.926Z,3.08
2022-07-29T05:10:32.626Z,3.38
2022-07-29T05:13:00.995Z,5.38
2022-07-29T05:15:29.203Z,5.85
2022-07-29T05:17:57.819Z,3.08
2022-07-29T05:20:29.311Z,4.90
2022-07-29T05:25:42.461Z,4.88
2022-07-29T05:28:14.521Z,3.15
2022-07-29T05:30:42.851Z,2.90
2022-07-29T05:33:34.712Z,5.72
2022-07-29T05:36:00.736Z,6.18
2022-07-29T05:38:30.404Z,5.50
2022-07-29T05:40:59.765Z,6.32
2022-07-29T05:43:30.152Z,3.25
2022-07-29T05:45:58.521Z,7.93
2022-07-29T05:48:27.022Z,3.65
2022-07-29T05:50:55.890Z,5.50
2022-07-29T05:53:24.848Z,5.63
2022-07-29T05:55:53.013Z,4.47
2022-07-29T05:58:22.393Z,6.57
2022-07-29T06:00:51.961Z,4.45
2022-07-29T06:03:20.052Z,5.45
2022-07-29T06:05:48.424Z,4.88
2022-07-29T06:08:16.582Z,4.55
2022-07-29T06:10:45.238Z,6.80
2022-07-29T06:13:13.824Z,3.72
2022-07-29T06:15:42.324Z,5.70
2022-07-29T06:18:11.935Z,4.95
2022-07-29T06:20:40.263Z,6.25
2022-07-29T06:23:08.512Z,5.90
2022-07-29T06:25:37.848Z,9.35
2022-07-29T06:28:06.466Z,4.25
2022-07-29T06:30:34.661Z,6.72
2022-07-29T06:33:03.111Z,4.93
2022-07-29T06:35:39.214Z,7.00
2022-07-29T06:38:31.743Z,5.57
2022-07-29T06:41:02.253Z,12.30
2022-07-29T06:43:32.734Z,8.13
2022-07-29T06:46:02.490Z,5.13
2022-07-29T06:48:30.983Z,6.22
2022-07-29T06:51:00.797Z,6.78
2022-07-29T06:53:29.683Z,7.30
2022-07-29T06:55:59.234Z,7.22
2022-07-29T06:58:27.685Z,6.72
2022-07-29T07:00:56.937Z,5.32
2022-07-29T07:03:25.562Z,6.70
2022-07-29T07:05:55.686Z,6.97
2022-07-29T07:08:25.750Z,4.85
2022-07-29T07:10:54.194Z,5.10
2022-07-29T07:13:22.341Z,4.05
2022-07-29T07:15:51.937Z,3.72
2022-07-29T07:18:20.740Z,4.18
2022-07-29T07:20:48.968Z,2.42
2022-07-29T07:23:17.325Z,5.28
2022-07-29T07:25:46.878Z,4.68
2022-07-29T07:28:15.057Z,5.65
2022-07-29T07:30:43.499Z,3.78
2022-07-29T07:33:11.695Z,5.78
2022-07-29T07:35:40.232Z,4.68
2022-07-29T07:38:08.746Z,5.85
2022-07-29T07:40:37.401Z,4.22
2022-07-29T07:43:07.114Z,3.63
2022-07-29T07:45:38.310Z,2.72
2022-07-29T07:48:07.388Z,6.13
2022-07-29T07:50:35.508Z,4.43
2022-07-29T07:53:04.280Z,3.33
2022-07-29T07:55:53.266Z,5.90
2022-07-29T07:58:22.203Z,5.50
2022-07-29T08:00:50.429Z,3.90
2022-07-29T08:03:18.657Z,5.78
2022-07-29T08:05:48.482Z,7.85
2022-07-29T08:08:16.599Z,5.53
2022-07-29T08:10:57.862Z,5.40
2022-07-29T08:13:31.248Z,5.40
2022-07-29T08:16:01.245Z,4.68
2022-07-29T08:18:32.168Z,3.45
2022-07-29T08:23:46.867Z,7.10
2022-07-29T08:26:17.752Z,4.70
2022-07-29T08:28:50.420Z,6.38
2022-07-29T08:31:19.194Z,4.63
2022-07-29T08:33:47.420Z,5.93
2022-07-29T08:36:15.726Z,3.70
2022-07-29T08:38:43.986Z,3.47
2022-07-29T08:41:12.132Z,3.70
2022-07-29T08:43:42.874Z,3.75
2022-07-29T08:46:12.818Z,4.32
2022-07-29T08:48:41.411Z,3.20
2022-07-29T08:51:10.485Z,4.75
2022-07-29T08:53:39.400Z,4.30
2022-07-29T08:56:08.377Z,6.28
2022-07-29T08:58:38.460Z,4.65
2022-07-29T09:01:07.639Z,2.50
2022-07-29T09:03:42.747Z,4.03
2022-07-29T09:06:11.786Z,4.88
2022-07-29T09:08:40.139Z,5.88
2022-07-29T09:11:08.612Z,7.93
2022-07-29T09:13:37.200Z,4.72
2022-07-29T09:16:09.307Z,2.80
2022-07-29T09:18:39.890Z,3.75
2022-07-29T09:21:32.024Z,4.43
2022-07-29T09:24:06.353Z,3.33
2022-07-29T09:26:35.716Z,4.35
2022-07-29T09:29:11.513Z,3.10
2022-07-29T09:31:41.031Z,7.40
2022-07-29T09:34:10.205Z,4.07
2022-07-29T09:36:42.743Z,3.38
2022-07-29T09:39:11.441Z,2.53
2022-07-29T09:41:48.773Z,4.05
2022-07-29T09:44:22.702Z,8.70
2022-07-29T09:47:06.992Z,6.25
2022-07-29T09:49:35.789Z,4.80
2022-07-29T09:52:09.465Z,5.80
2022-07-29T09:54:40.945Z,8.80
2022-07-29T09:57:13.521Z,3.75
2022-07-29T09:59:50.373Z,3.95
2022-07-29T10:02:23.663Z,5.40
2022-07-29T10:04:52.523Z,3.63
2022-07-29T10:07:21.989Z,6.90
2022-07-29T10:09:56.128Z,2.33
2022-07-29T10:12:27.628Z,4.18
2022-07-29T10:14:56.088Z,4.63
2022-07-29T10:17:24.599Z,3.50
2022-07-29T10:19:52.967Z,5.85
2022-07-29T10:22:51.546Z,6.38
2022-07-29T10:25:11.893Z,4.03
2022-07-29T10:27:40.371Z,4.07
2022-07-29T10:30:09.572Z,3.25
2022-07-29T10:32:52.452Z,5.80
2022-07-29T10:35:43.866Z,3.45
2022-07-29T10:38:30.246Z,6.20
2022-07-29T10:41:23.364Z,4.13
2022-07-29T10:43:52.671Z,5.40
2022-07-29T10:46:23.020Z,2.42
2022-07-29T10:49:15.697Z,6.90
2022-07-29T10:51:54.527Z,6.35
2022-07-29T10:54:51.102Z,3.83
2022-07-29T10:57:53.411Z,6.22
2022-07-29T11:00:32.419Z,5.75
2022-07-29T11:03:04.848Z,4.78
2022-07-29T11:05:56.211Z,6.28
2022-07-29T11:08:27.999Z,4.20
2022-07-29T11:11:37.939Z,5.53
2022-07-29T11:14:10.428Z,2.38
2022-07-29T11:17:02.065Z,3.58
2022-07-29T11:19:31.024Z,4.65
2022-07-29T11:21:59.482Z,4.55
2022-07-29T11:24:34.924Z,3.63
2022-07-29T11:27:18.284Z,4.20
2022-07-29T11:29:57.447Z,2.92
2022-07-29T11:32:29.444Z,3.85
2022-07-29T11:35:17.040Z,3.67
2022-07-29T11:37:52.714Z,9.07
2022-07-29T11:40:24.175Z,4.88
2022-07-29T11:42:52.831Z,5.30
2022-07-29T11:45:44.460Z,3.00
2022-07-29T11:48:31.997Z,3.53
2022-07-29T11:51:01.357Z,4.25
2022-07-29T11:53:32.530Z,2.45
2022-07-29T11:56:02.452Z,2.95
2022-07-29T11:58:31.839Z,5.47
2022-07-29T12:01:04.494Z,3.30
2022-07-29T12:03:35.924Z,8.00
2022-07-29T12:06:07.573Z,2.85
2022-07-29T12:08:43.801Z,2.67
2022-07-29T12:11:20.914Z,3.00
2022-07-29T12:13:50.822Z,3.58
2022-07-29T12:16:25.833Z,4.88
2022-07-29T12:19:07.913Z,4.55
2022-07-29T12:21:53.792Z,2.95
2022-07-29T12:24:26.938Z,4.95
2022-07-29T12:26:56.981Z,2.47
2022-07-29T12:29:35.275Z,4.13
2022-07-29T12:32:14.883Z,3.08
2022-07-29T12:34:48.002Z,2.75
2022-07-29T12:37:16.193Z,4.95
2022-07-29T12:39:44.625Z,3.72
2022-07-29T12:42:15.011Z,8.50
2022-07-29T12:44:50.772Z,6.00
2022-07-29T12:47:21.122Z,4.03
2022-07-29T12:49:50.321Z,6.00
2022-07-29T12:52:29.833Z,1.98
2022-07-29T12:54:58.751Z,2.08
2022-07-29T12:57:27.105Z,3.03
2022-07-29T13:00:04.086Z,2.65
2022-07-29T13:02:34.038Z,2.80
2022-07-29T13:05:03.224Z,3.80
2022-07-29T13:07:54.094Z,1.95
2022-07-29T13:10:24.457Z,2.75
2022-07-29T13:13:10.529Z,3.08
2022-07-29T13:15:40.012Z,2.42
2022-07-29T13:18:30.247Z,3.88
2022-07-29T13:20:58.986Z,2.65
2022-07-29T13:23:27.253Z,3.47
2022-07-29T13:25:55.368Z,3.55
2022-07-29T13:28:23.864Z,5.47
2022-07-29T13:30:52.072Z,2.42
2022-07-29T13:33:20.259Z,2.45
2022-07-29T13:35:49.986Z,4.47
2022-07-29T13:38:18.090Z,4.60
2022-07-29T13:40:46.191Z,4.13
2022-07-29T13:43:14.595Z,5.95
2022-07-29T13:45:42.964Z,4.90
2022-07-29T13:48:12.247Z,4.82
2022-07-29T13:50:40.666Z,7.07
2022-07-29T13:53:10.423Z,5.35
2022-07-29T13:55:46.685Z,5.05
2022-07-29T13:58:15.402Z,5.88
2022-07-29T14:00:43.564Z,6.40
2022-07-29T14:03:12.098Z,5.43
2022-07-29T14:05:40.363Z,3.60
2022-07-29T14:08:08.676Z,2.50
2022-07-29T14:10:38.310Z,3.75
2022-07-29T14:13:06.610Z,4.15
2022-07-29T14:15:53.274Z,3.60
2022-07-29T14:18:21.497Z,4.70
2022-07-29T14:20:49.701Z,4.63
2022-07-29T14:23:17.976Z,2.97
2022-07-29T14:25:49.759Z,7.28
2022-07-29T14:28:17.998Z,4.38
2022-07-29T14:30:46.354Z,3.25
2022-07-29T14:33:14.820Z,5.50
2022-07-29T14:35:43.095Z,3.85
2022-07-29T14:38:11.442Z,3.92
2022-07-29T14:40:40.171Z,3.85
2022-07-29T14:43:09.645Z,3.72
2022-07-29T14:45:39.199Z,4.35
2022-07-29T14:48:07.826Z,5.28
2022-07-29T14:50:35.994Z,3.83
2022-07-29T14:53:04.462Z,6.68
2022-07-29T14:55:32.793Z,4.30
2022-07-29T14:58:09.718Z,6.68
2022-07-29T15:00:41.100Z,6.13
2022-07-29T15:03:11.572Z,8.60
2022-07-29T15:05:40.028Z,5.55
2022-07-29T15:08:09.427Z,3.28
2022-07-29T15:10:37.706Z,8.00
2022-07-29T15:13:05.875Z,5.00
2022-07-29T15:15:34.213Z,3.40
2022-07-29T15:18:03.962Z,5.88
2022-07-29T15:20:32.341Z,9.05
2022-07-29T15:23:00.871Z,3.38
2022-07-29T15:25:29.056Z,3.53
2022-07-29T15:28:01.169Z,6.18
2022-07-29T15:30:33.494Z,6.63
2022-07-29T15:33:04.492Z,6.20
2022-07-29T15:35:33.186Z,5.03
2022-07-29T15:38:01.369Z,5.60
2022-07-29T15:40:29.905Z,4.32
2022-07-29T15:42:58.503Z,7.53
2022-07-29T15:45:26.816Z,4.15
2022-07-29T15:48:00.414Z,5.70
2022-07-29T15:50:30.168Z,3.58
2022-07-29T15:52:58.871Z,4.20
2022-07-29T15:55:27.524Z,3.65
2022-07-29T15:58:00.281Z,5.22
2022-07-29T16:00:29.143Z,4.90
2022-07-29T16:02:57.389Z,2.85
2022-07-29T16:05:25.842Z,5.82
2022-07-29T16:07:55.576Z,4.20
2022-07-29T16:10:23.927Z,5.95
2022-07-29T16:12:52.168Z,4.10
2022-07-29T16:15:20.781Z,7.22
2022-07-29T16:17:50.462Z,3.88
2022-07-29T16:20:18.622Z,6.47
2022-07-29T16:22:47.279Z,2.80
2022-07-29T16:25:16.869Z,4.70
2022-07-29T16:27:45.259Z,2.92
2022-07-29T16:30:13.959Z,5.40
2022-07-29T16:32:42.276Z,5.00
2022-07-29T16:35:13.178Z,5.07
2022-07-29T16:37:41.866Z,7.20
2022-07-29T16:40:11.703Z,4.32
2022-07-29T16:42:46.984Z,9.40
2022-07-29T16:45:16.812Z,6.80
2022-07-29T16:47:46.348Z,4.30
2022-07-29T16:50:14.640Z,5.13
2022-07-29T16:52:42.974Z,3.30
2022-07-29T16:55:11.280Z,5.75
2022-07-29T16:57:39.456Z,7.05
2022-07-29T17:00:10.626Z,10.00
2022-07-29T17:02:39.403Z,4.63
2022-07-29T17:05:08.499Z,3.58
2022-07-29T17:07:36.906Z,3.05
2022-07-29T17:10:08.128Z,5.25
2022-07-29T17:15:05.498Z,5.03
2022-07-29T17:17:39.512Z,7.05
2022-07-29T17:20:23.543Z,3.85
2022-07-29T17:22:51.772Z,4.88
2022-07-29T17:25:20.640Z,4.60
2022-07-29T17:27:50.731Z,4.90
2022-07-29T17:30:19.498Z,6.05
2022-07-29T17:32:48.965Z,5.50
2022-07-29T17:35:34.965Z,4.22
2022-07-29T17:38:03.094Z,5.75
2022-07-29T17:40:31.541Z,4.72
2022-07-29T17:42:59.890Z,4.82
2022-07-29T17:45:48.759Z,6.80
2022-07-29T17:48:17.822Z,6.28
2022-07-29T17:50:46.082Z,3.80
2022-07-29T17:53:16.563Z,6.65
2022-07-29T17:55:45.944Z,8.07
2022-07-29T17:58:14.226Z,6.60
2022-07-29T18:00:42.952Z,5.43
2022-07-29T18:03:11.688Z,6.15
2022-07-29T18:05:41.405Z,8.55
2022-07-29T18:08:09.649Z,10.52
2022-07-29T18:10:38.583Z,9.15
2022-07-29T18:13:07.455Z,7.20
2022-07-29T18:15:36.086Z,8.68
2022-07-29T18:18:04.576Z,9.10
2022-07-29T18:20:33.097Z,6.95
2022-07-29T18:23:02.876Z,11.55
2022-07-29T18:25:31.498Z,11.35
2022-07-29T18:28:00.652Z,5.50
2022-07-29T18:30:29.232Z,8.85
2022-07-29T18:33:19.863Z,8.23
2022-07-29T18:35:46.337Z,8.38
2022-07-29T18:38:16.108Z,7.28
2022-07-29T18:40:46.032Z,7.45
2022-07-29T18:43:14.775Z,8.55
2022-07-29T18:45:43.343Z,8.85
2022-07-29T18:48:12.948Z,7.20
2022-07-29T18:50:42.078Z,7.43
2022-07-29T18:53:10.628Z,6.90
2022-07-29T18:55:40.093Z,8.70
2022-07-29T18:58:08.265Z,10.05
2022-07-29T19:00:36.680Z,9.60
2022-07-29T19:03:05.122Z,11.05
2022-07-29T19:05:33.497Z,7.38
2022-07-29T19:08:01.881Z,7.22
2022-07-29T19:10:30.518Z,6.45
2022-07-29T19:12:59.968Z,9.23
2022-07-29T19:15:28.660Z,7.13
2022-07-29T19:18:00.978Z,6.47
2022-07-29T19:20:29.989Z,7.78
2022-07-29T19:22:58.681Z,7.60
2022-07-29T19:25:26.956Z,8.02
2022-07-29T19:27:55.352Z,8.63
2022-07-29T19:30:24.848Z,8.02
2022-07-29T19:32:53.043Z,11.25
2022-07-29T19:35:31.149Z,10.27
2022-07-29T19:38:00.763Z,8.65
2022-07-29T19:40:30.248Z,9.95
2022-07-29T19:42:59.112Z,12.95
2022-07-29T19:45:29.057Z,16.75
2022-07-29T19:48:01.279Z,13.38
2022-07-29T19:50:30.504Z,14.68
2022-07-29T19:52:59.138Z,18.40
2022-07-29T19:55:27.400Z,16.17
2022-07-29T19:57:55.707Z,13.90
2022-07-29T20:00:25.266Z,20.92
2022-07-29T20:02:56.536Z,19.65
2022-07-29T20:05:27.843Z,17.98
2022-07-29T20:07:56.643Z,18.27
2022-07-29T20:10:25.341Z,19.88
2022-07-29T20:12:55.174Z,18.30
2022-07-29T20:15:23.996Z,21.02
2022-07-29T20:17:57.012Z,20.95
2022-07-29T20:20:27.646Z,18.48
2022-07-29T20:22:55.871Z,14.13
2022-07-29T20:25:25.315Z,16.42
2022-07-29T20:27:54.410Z,14.68
2022-07-29T20:30:23.441Z,15.10
2022-07-29T20:32:51.895Z,15.05
2022-07-29T20:35:22.435Z,15.75
2022-07-29T20:37:56.024Z,15.18
2022-07-29T20:40:25.597Z,13.63
2022-07-29T20:42:53.815Z,14.90
2022-07-29T20:45:22.598Z,14.05
2022-07-29T20:47:51.938Z,14.52
2022-07-29T20:50:23.984Z,15.23
2022-07-29T20:52:54.218Z,14.95
2022-07-29T20:55:22.420Z,15.15
2022-07-29T20:57:50.792Z,18.83
2022-07-29T21:00:19.303Z,18.45
2022-07-29T21:02:47.643Z,17.00
2022-07-29T21:05:16.326Z,12.80
2022-07-29T21:07:44.752Z,13.68
2022-07-29T21:10:15.085Z,12.45
2022-07-29T21:12:43.250Z,12.07
2022-07-29T21:15:13.638Z,13.40
2022-07-29T21:17:46.905Z,13.63
2022-07-29T21:20:16.093Z,10.95
2022-07-29T21:22:44.775Z,9.70
2022-07-29T21:25:14.321Z,7.45
2022-07-29T21:28:00.346Z,9.93
2022-07-29T21:30:28.508Z,9.00
2022-07-29T21:32:56.918Z,7.53
2022-07-29T21:36:01.844Z,8.43
2022-07-29T21:38:13.384Z,8.95
2022-07-29T21:40:42.868Z,8.85
2022-07-29T21:43:11.105Z,7.35
2022-07-29T21:45:39.597Z,7.72
2022-07-29T21:48:08.190Z,10.13
2022-07-29T21:50:36.759Z,7.22
2022-07-29T21:53:04.998Z,8.13
2022-07-29T21:55:33.911Z,9.18
2022-07-29T21:58:04.364Z,5.90
2022-07-29T22:00:33.968Z,8.00
2022-07-29T22:03:02.601Z,6.68
2022-07-29T22:05:31.123Z,6.72
2022-07-29T22:08:00.043Z,6.07
2022-07-29T22:10:29.881Z,6.80
2022-07-29T22:12:59.322Z,9.00
2022-07-29T22:15:29.741Z,7.55
2022-07-29T22:17:57.918Z,6.63
2022-07-29T22:20:26.259Z,6.28
2022-07-29T22:22:55.070Z,6.13
2022-07-29T22:25:23.371Z,5.82
2022-07-29T22:27:51.766Z,6.70
2022-07-29T22:30:20.281Z,7.97
2022-07-29T22:32:49.731Z,6.40
2022-07-29T22:35:18.152Z,4.57
2022-07-29T22:37:46.446Z,7.05
2022-07-29T22:40:14.611Z,4.15
2022-07-29T22:42:42.697Z,7.22
2022-07-29T22:45:11.815Z,7.85
2022-07-29T22:47:48.303Z,5.00
2022-07-29T22:50:18.762Z,6.72
2022-07-29T22:52:47.097Z,5.88
2022-07-29T22:55:15.231Z,5.60
2022-07-29T22:57:43.497Z,5.72
2022-07-29T23:00:13.607Z,5.00
2022-07-29T23:02:41.848Z,8.68
2022-07-29T23:05:11.416Z,5.18
2022-07-29T23:07:41.079Z,4.72
2022-07-29T23:10:10.312Z,7.28
2022-07-29T23:12:39.087Z,5.45
2022-07-29T23:15:07.907Z,7.10
2022-07-29T23:17:36.883Z,4.63
2022-07-29T23:20:08.037Z,4.93
2022-07-29T23:22:36.347Z,5.65
2022-07-29T23:25:07.374Z,5.53
2022-07-29T23:30:04.249Z,3.95
2022-07-29T23:32:32.288Z,4.30
2022-07-29T23:35:00.548Z,4.00
2022-07-29T23:37:28.844Z,3.50
2022-07-29T23:39:57.066Z,4.47
2022-07-29T23:42:26.785Z,4.43
2022-07-29T23:44:54.911Z,3.90
2022-07-29T23:47:23.034Z,6.35
2022-07-29T23:49:51.781Z,3.95
2022-07-29T23:52:19.901Z,3.40
2022-07-29T23:54:48.259Z,3.47
2022-07-29T23:57:16.665Z,3.25
2022-07-29T23:59:46.178Z,5.28
